sensor_id;sensor_type;location;lat;lon;timestamp;P1;durP1;ratioP1;P2;durP2;ratioP2
239;SDS011;104;53.590;10.004;2022-11-25T00:00:13;42.47;;;21.17;;
239;SDS011;104;53.590;10.004;2022-11-25T00:02:44;31.20;;;14.00;;
239;SDS011;104;53.590;10.004;2022-11-25T00:05:11;29.90;;;14.93;;
239;SDS011;104;53.590;10.004;2022-11-25T00:07:38;28.70;;;14.50;;
239;SDS011;104;53.590;10.004;2022-11-25T00:10:06;36.03;;;15.73;;
239;SDS011;104;53.590;10.004;2022-11-25T00:12:34;34.33;;;16.27;;
239;SDS011;104;53.590;10.004;2022-11-25T00:15:01;29.23;;;14.50;;
239;SDS011;104;53.590;10.004;2022-11-25T00:17:30;33.60;;;14.57;;
239;SDS011;104;53.590;10.004;2022-11-25T00:19:57;33.77;;;16.77;;
239;SDS011;104;53.590;10.004;2022-11-25T00:22:25;28.13;;;14.50;;
239;SDS011;104;53.590;10.004;2022-11-25T00:24:52;25.90;;;13.47;;
239;SDS011;104;53.590;10.004;2022-11-25T00:27:19;32.70;;;13.50;;
239;SDS011;104;53.590;10.004;2022-11-25T00:29:46;28.00;;;14.30;;
239;SDS011;104;53.590;10.004;2022-11-25T00:32:13;26.23;;;13.10;;
239;SDS011;104;53.590;10.004;2022-11-25T00:34:42;35.23;;;16.70;;
239;SDS011;104;53.590;10.004;2022-11-25T00:37:09;29.30;;;15.27;;
239;SDS011;104;53.590;10.004;2022-11-25T00:39:36;27.83;;;14.20;;
239;SDS011;104;53.590;10.004;2022-11-25T00:42:03;32.60;;;14.40;;
239;SDS011;104;53.590;10.004;2022-11-25T00:44:50;30.13;;;13.20;;
239;SDS011;104;53.590;10.004;2022-11-25T00:47:18;24.83;;;13.10;;
239;SDS011;104;53.590;10.004;2022-11-25T00:49:48;24.13;;;13.80;;
239;SDS011;104;53.590;10.004;2022-11-25T00:52:18;26.83;;;13.90;;
239;SDS011;104;53.590;10.004;2022-11-25T00:54:46;29.23;;;13.17;;
239;SDS011;104;53.590;10.004;2022-11-25T00:57:14;34.40;;;14.13;;
239;SDS011;104;53.590;10.004;2022-11-25T00:59:42;26.30;;;12.73;;
239;SDS011;104;53.590;10.004;2022-11-25T01:02:09;25.77;;;12.93;;
239;SDS011;104;53.590;10.004;2022-11-25T01:04:38;26.83;;;13.23;;
239;SDS011;104;53.590;10.004;2022-11-25T01:07:06;23.67;;;12.93;;
239;SDS011;104;53.590;10.004;2022-11-25T01:09:33;27.60;;;13.30;;
239;SDS011;104;53.590;10.004;2022-11-25T01:12:01;24.23;;;12.63;;
239;SDS011;104;53.590;10.004;2022-11-25T01:14:30;21.00;;;12.70;;
239;SDS011;104;53.590;10.004;2022-11-25T01:16:57;24.20;;;12.40;;
239;SDS011;104;53.590;10.004;2022-11-25T01:19:24;25.17;;;11.97;;
239;SDS011;104;53.590;10.004;2022-11-25T01:21:51;25.13;;;12.50;;
239;SDS011;104;53.590;10.004;2022-11-25T01:24:20;23.70;;;12.37;;
239;SDS011;104;53.590;10.004;2022-11-25T01:26:47;22.40;;;12.10;;
239;SDS011;104;53.590;10.004;2022-11-25T01:29:14;21.53;;;11.80;;
239;SDS011;104;53.590;10.004;2022-11-25T01:31:43;21.40;;;11.53;;
239;SDS011;104;53.590;10.004;2022-11-25T01:34:12;19.50;;;10.53;;
239;SDS011;104;53.590;10.004;2022-11-25T01:36:41;28.57;;;12.93;;
239;SDS011;104;53.590;10.004;2022-11-25T01:39:10;38.37;;;14.10;;
239;SDS011;104;53.590;10.004;2022-11-25T01:41:42;26.40;;;13.23;;
239;SDS011;104;53.590;10.004;2022-11-25T01:44:20;99.03;;;15.70;;
239;SDS011;104;53.590;10.004;2022-11-25T01:46:51;108.13;;;16.37;;
239;SDS011;104;53.590;10.004;2022-11-25T01:49:28;43.90;;;13.07;;
239;SDS011;104;53.590;10.004;2022-11-25T01:52:00;38.80;;;12.43;;
239;SDS011;104;53.590;10.004;2022-11-25T01:54:32;60.33;;;13.47;;
239;SDS011;104;53.590;10.004;2022-11-25T01:57:05;24.50;;;12.77;;
239;SDS011;104;53.590;10.004;2022-11-25T01:59:36;38.17;;;13.40;;
239;SDS011;104;53.590;10.004;2022-11-25T02:02:07;27.37;;;12.00;;
239;SDS011;104;53.590;10.004;2022-11-25T02:04:34;52.30;;;13.87;;
239;SDS011;104;53.590;10.004;2022-11-25T02:07:06;98.23;;;14.80;;
239;SDS011;104;53.590;10.004;2022-11-25T02:09:36;165.10;;;15.50;;
239;SDS011;104;53.590;10.004;2022-11-25T02:12:08;115.30;;;15.90;;
239;SDS011;104;53.590;10.004;2022-11-25T02:14:36;214.87;;;15.60;;
239;SDS011;104;53.590;10.004;2022-11-25T02:17:04;177.97;;;17.03;;
239;SDS011;104;53.590;10.004;2022-11-25T02:19:32;154.97;;;15.67;;
239;SDS011;104;53.590;10.004;2022-11-25T02:22:17;136.63;;;15.37;;
239;SDS011;104;53.590;10.004;2022-11-25T02:24:49;76.60;;;16.23;;
239;SDS011;104;53.590;10.004;2022-11-25T02:27:24;38.83;;;15.20;;
239;SDS011;104;53.590;10.004;2022-11-25T02:29:52;46.87;;;14.87;;
239;SDS011;104;53.590;10.004;2022-11-25T02:32:20;132.47;;;16.97;;
239;SDS011;104;53.590;10.004;2022-11-25T02:34:48;70.43;;;14.63;;
239;SDS011;104;53.590;10.004;2022-11-25T02:37:16;79.83;;;14.77;;
239;SDS011;104;53.590;10.004;2022-11-25T02:39:46;90.13;;;15.80;;
239;SDS011;104;53.590;10.004;2022-11-25T02:42:14;94.30;;;15.77;;
239;SDS011;104;53.590;10.004;2022-11-25T02:44:47;68.90;;;15.60;;
239;SDS011;104;53.590;10.004;2022-11-25T02:47:15;96.97;;;15.80;;
239;SDS011;104;53.590;10.004;2022-11-25T02:49:42;99.17;;;16.00;;
239;SDS011;104;53.590;10.004;2022-11-25T02:52:10;55.00;;;15.70;;
239;SDS011;104;53.590;10.004;2022-11-25T02:54:37;41.97;;;14.90;;
239;SDS011;104;53.590;10.004;2022-11-25T02:57:04;36.00;;;15.10;;
239;SDS011;104;53.590;10.004;2022-11-25T02:59:31;43.27;;;14.73;;
239;SDS011;104;53.590;10.004;2022-11-25T03:02:00;81.03;;;15.73;;
239;SDS011;104;53.590;10.004;2022-11-25T03:04:28;25.93;;;14.50;;
239;SDS011;104;53.590;10.004;2022-11-25T03:06:55;23.60;;;14.27;;
239;SDS011;104;53.590;10.004;2022-11-25T03:09:22;29.83;;;13.87;;
239;SDS011;104;53.590;10.004;2022-11-25T03:11:50;32.30;;;13.87;;
239;SDS011;104;53.590;10.004;2022-11-25T03:14:34;33.33;;;16.07;;
239;SDS011;104;53.590;10.004;2022-11-25T03:17:02;42.53;;;22.53;;
239;SDS011;104;53.590;10.004;2022-11-25T03:19:29;24.07;;;14.27;;
239;SDS011;104;53.590;10.004;2022-11-25T03:21:57;27.57;;;13.97;;
239;SDS011;104;53.590;10.004;2022-11-25T03:24:24;25.93;;;14.10;;
239;SDS011;104;53.590;10.004;2022-11-25T03:26:51;25.30;;;13.87;;
239;SDS011;104;53.590;10.004;2022-11-25T03:29:18;28.33;;;14.13;;
239;SDS011;104;53.590;10.004;2022-11-25T03:31:45;25.80;;;14.63;;
239;SDS011;104;53.590;10.004;2022-11-25T03:34:13;30.23;;;14.30;;
239;SDS011;104;53.590;10.004;2022-11-25T03:36:40;39.10;;;16.17;;
239;SDS011;104;53.590;10.004;2022-11-25T03:39:07;30.80;;;14.20;;
239;SDS011;104;53.590;10.004;2022-11-25T03:41:34;33.87;;;13.70;;
239;SDS011;104;53.590;10.004;2022-11-25T03:44:01;23.80;;;14.13;;
239;SDS011;104;53.590;10.004;2022-11-25T03:46:28;38.50;;;14.93;;
239;SDS011;104;53.590;10.004;2022-11-25T03:48:56;26.00;;;13.60;;
239;SDS011;104;53.590;10.004;2022-11-25T03:51:24;29.43;;;14.13;;
239;SDS011;104;53.590;10.004;2022-11-25T03:53:51;51.73;;;14.50;;
239;SDS011;104;53.590;10.004;2022-11-25T03:56:18;35.97;;;14.70;;
239;SDS011;104;53.590;10.004;2022-11-25T03:58:45;45.20;;;13.83;;
239;SDS011;104;53.590;10.004;2022-11-25T04:01:12;58.37;;;13.50;;
239;SDS011;104;53.590;10.004;2022-11-25T04:03:40;40.57;;;12.63;;
239;SDS011;104;53.590;10.004;2022-11-25T04:06:07;30.63;;;12.30;;
239;SDS011;104;53.590;10.004;2022-11-25T04:08:35;80.27;;;13.30;;
239;SDS011;104;53.590;10.004;2022-11-25T04:11:02;95.87;;;13.07;;
239;SDS011;104;53.590;10.004;2022-11-25T04:13:29;80.73;;;12.40;;
239;SDS011;104;53.590;10.004;2022-11-25T04:15:55;80.87;;;12.47;;
239;SDS011;104;53.590;10.004;2022-11-25T04:18:23;133.77;;;12.63;;
239;SDS011;104;53.590;10.004;2022-11-25T04:20:49;50.97;;;11.53;;
239;SDS011;104;53.590;10.004;2022-11-25T04:23:17;69.77;;;13.13;;
239;SDS011;104;53.590;10.004;2022-11-25T04:25:47;64.30;;;12.23;;
239;SDS011;104;53.590;10.004;2022-11-25T04:28:15;70.03;;;12.53;;
239;SDS011;104;53.590;10.004;2022-11-25T04:30:42;79.07;;;11.97;;
239;SDS011;104;53.590;10.004;2022-11-25T04:33:09;42.77;;;12.17;;
239;SDS011;104;53.590;10.004;2022-11-25T04:35:36;81.43;;;13.03;;
239;SDS011;104;53.590;10.004;2022-11-25T04:38:03;54.23;;;11.80;;
239;SDS011;104;53.590;10.004;2022-11-25T04:40:30;69.67;;;12.10;;
239;SDS011;104;53.590;10.004;2022-11-25T04:42:58;137.27;;;13.20;;
239;SDS011;104;53.590;10.004;2022-11-25T04:45:25;32.50;;;13.20;;
239;SDS011;104;53.590;10.004;2022-11-25T04:47:52;22.47;;;13.00;;
239;SDS011;104;53.590;10.004;2022-11-25T04:50:20;38.17;;;12.63;;
239;SDS011;104;53.590;10.004;2022-11-25T04:52:48;47.27;;;12.80;;
239;SDS011;104;53.590;10.004;2022-11-25T04:55:15;41.20;;;11.77;;
239;SDS011;104;53.590;10.004;2022-11-25T04:57:42;39.23;;;13.10;;
239;SDS011;104;53.590;10.004;2022-11-25T05:00:11;30.50;;;13.00;;
239;SDS011;104;53.590;10.004;2022-11-25T05:02:38;44.33;;;12.93;;
239;SDS011;104;53.590;10.004;2022-11-25T05:05:06;40.40;;;12.50;;
239;SDS011;104;53.590;10.004;2022-11-25T05:07:33;49.43;;;12.03;;
239;SDS011;104;53.590;10.004;2022-11-25T05:10:00;25.87;;;11.77;;
239;SDS011;104;53.590;10.004;2022-11-25T05:12:27;41.43;;;12.40;;
239;SDS011;104;53.590;10.004;2022-11-25T05:14:55;37.43;;;13.43;;
239;SDS011;104;53.590;10.004;2022-11-25T05:17:24;36.30;;;14.63;;
239;SDS011;104;53.590;10.004;2022-11-25T05:19:51;61.70;;;12.93;;
239;SDS011;104;53.590;10.004;2022-11-25T05:22:19;43.67;;;13.73;;
239;SDS011;104;53.590;10.004;2022-11-25T05:24:47;39.83;;;14.73;;
239;SDS011;104;53.590;10.004;2022-11-25T05:27:15;39.63;;;13.93;;
239;SDS011;104;53.590;10.004;2022-11-25T05:29:42;30.60;;;14.20;;
239;SDS011;104;53.590;10.004;2022-11-25T05:32:10;41.63;;;13.70;;
239;SDS011;104;53.590;10.004;2022-11-25T05:34:39;38.70;;;14.63;;
239;SDS011;104;53.590;10.004;2022-11-25T05:37:07;29.57;;;13.40;;
239;SDS011;104;53.590;10.004;2022-11-25T05:39:34;25.07;;;13.57;;
239;SDS011;104;53.590;10.004;2022-11-25T05:42:02;40.03;;;13.77;;
239;SDS011;104;53.590;10.004;2022-11-25T05:44:29;45.43;;;14.00;;
239;SDS011;104;53.590;10.004;2022-11-25T05:46:56;25.00;;;12.67;;
239;SDS011;104;53.590;10.004;2022-11-25T05:49:23;26.03;;;13.80;;
239;SDS011;104;53.590;10.004;2022-11-25T05:51:51;23.60;;;13.50;;
239;SDS011;104;53.590;10.004;2022-11-25T05:54:19;39.20;;;15.17;;
239;SDS011;104;53.590;10.004;2022-11-25T05:56:46;29.10;;;14.63;;
239;SDS011;104;53.590;10.004;2022-11-25T05:59:13;32.53;;;14.73;;
239;SDS011;104;53.590;10.004;2022-11-25T06:01:40;28.73;;;14.73;;
239;SDS011;104;53.590;10.004;2022-11-25T06:04:08;29.03;;;15.73;;
239;SDS011;104;53.590;10.004;2022-11-25T06:06:36;33.27;;;15.80;;
239;SDS011;104;53.590;10.004;2022-11-25T06:09:04;30.90;;;15.57;;
239;SDS011;104;53.590;10.004;2022-11-25T06:11:31;31.57;;;16.10;;
239;SDS011;104;53.590;10.004;2022-11-25T06:13:58;57.53;;;15.20;;
239;SDS011;104;53.590;10.004;2022-11-25T06:16:26;29.30;;;14.30;;
239;SDS011;104;53.590;10.004;2022-11-25T06:18:53;44.10;;;15.53;;
239;SDS011;104;53.590;10.004;2022-11-25T06:21:20;49.83;;;16.60;;
239;SDS011;104;53.590;10.004;2022-11-25T06:23:47;29.27;;;15.00;;
239;SDS011;104;53.590;10.004;2022-11-25T06:26:16;33.63;;;14.20;;
239;SDS011;104;53.590;10.004;2022-11-25T06:28:44;28.77;;;15.23;;
239;SDS011;104;53.590;10.004;2022-11-25T06:31:13;33.97;;;15.07;;
239;SDS011;104;53.590;10.004;2022-11-25T06:33:41;28.20;;;15.67;;
239;SDS011;104;53.590;10.004;2022-11-25T06:36:12;33.40;;;16.13;;
239;SDS011;104;53.590;10.004;2022-11-25T06:38:41;47.50;;;17.50;;
239;SDS011;104;53.590;10.004;2022-11-25T06:41:08;24.47;;;14.13;;
239;SDS011;104;53.590;10.004;2022-11-25T06:43:36;39.20;;;14.43;;
239;SDS011;104;53.590;10.004;2022-11-25T06:46:04;32.33;;;14.37;;
239;SDS011;104;53.590;10.004;2022-11-25T06:48:32;99.23;;;15.03;;
239;SDS011;104;53.590;10.004;2022-11-25T06:51:00;45.90;;;15.80;;
239;SDS011;104;53.590;10.004;2022-11-25T06:53:28;43.80;;;16.10;;
239;SDS011;104;53.590;10.004;2022-11-25T06:56:03;41.57;;;15.33;;
239;SDS011;104;53.590;10.004;2022-11-25T06:58:31;28.47;;;14.30;;
239;SDS011;104;53.590;10.004;2022-11-25T07:01:03;32.10;;;15.03;;
239;SDS011;104;53.590;10.004;2022-11-25T07:03:31;36.63;;;15.47;;
239;SDS011;104;53.590;10.004;2022-11-25T07:05:58;27.47;;;15.10;;
239;SDS011;104;53.590;10.004;2022-11-25T07:08:26;50.60;;;15.03;;
239;SDS011;104;53.590;10.004;2022-11-25T07:10:53;33.80;;;14.30;;
239;SDS011;104;53.590;10.004;2022-11-25T07:13:20;33.13;;;15.53;;
239;SDS011;104;53.590;10.004;2022-11-25T07:15:48;34.13;;;16.70;;
239;SDS011;104;53.590;10.004;2022-11-25T07:18:16;42.00;;;18.30;;
239;SDS011;104;53.590;10.004;2022-11-25T07:20:43;62.10;;;14.70;;
239;SDS011;104;53.590;10.004;2022-11-25T07:23:11;41.10;;;16.60;;
239;SDS011;104;53.590;10.004;2022-11-25T07:25:38;37.30;;;15.00;;
239;SDS011;104;53.590;10.004;2022-11-25T07:28:05;33.97;;;14.70;;
239;SDS011;104;53.590;10.004;2022-11-25T07:30:32;31.07;;;15.20;;
239;SDS011;104;53.590;10.004;2022-11-25T07:32:59;31.00;;;15.00;;
239;SDS011;104;53.590;10.004;2022-11-25T07:35:28;33.13;;;15.60;;
239;SDS011;104;53.590;10.004;2022-11-25T07:37:55;27.73;;;15.17;;
239;SDS011;104;53.590;10.004;2022-11-25T07:40:22;42.67;;;19.27;;
239;SDS011;104;53.590;10.004;2022-11-25T07:42:49;32.67;;;16.30;;
239;SDS011;104;53.590;10.004;2022-11-25T07:45:16;28.93;;;16.10;;
239;SDS011;104;53.590;10.004;2022-11-25T07:47:44;29.93;;;16.10;;
239;SDS011;104;53.590;10.004;2022-11-25T07:50:11;30.40;;;14.90;;
239;SDS011;104;53.590;10.004;2022-11-25T07:52:40;29.03;;;16.43;;
239;SDS011;104;53.590;10.004;2022-11-25T07:55:08;32.53;;;16.80;;
239;SDS011;104;53.590;10.004;2022-11-25T07:57:35;34.00;;;16.80;;
239;SDS011;104;53.590;10.004;2022-11-25T08:00:05;28.57;;;16.20;;
239;SDS011;104;53.590;10.004;2022-11-25T08:02:33;38.53;;;16.40;;
239;SDS011;104;53.590;10.004;2022-11-25T08:05:00;34.13;;;16.27;;
239;SDS011;104;53.590;10.004;2022-11-25T08:07:27;46.90;;;23.40;;
239;SDS011;104;53.590;10.004;2022-11-25T08:09:56;26.77;;;14.43;;
239;SDS011;104;53.590;10.004;2022-11-25T08:12:24;24.43;;;14.70;;
239;SDS011;104;53.590;10.004;2022-11-25T08:14:51;43.27;;;13.80;;
239;SDS011;104;53.590;10.004;2022-11-25T08:17:20;24.70;;;14.90;;
239;SDS011;104;53.590;10.004;2022-11-25T08:19:49;27.83;;;14.93;;
239;SDS011;104;53.590;10.004;2022-11-25T08:22:17;26.37;;;15.20;;
239;SDS011;104;53.590;10.004;2022-11-25T08:24:45;29.73;;;16.07;;
239;SDS011;104;53.590;10.004;2022-11-25T08:27:14;27.30;;;15.30;;
239;SDS011;104;53.590;10.004;2022-11-25T08:29:41;28.67;;;16.63;;
239;SDS011;104;53.590;10.004;2022-11-25T08:32:08;27.03;;;14.70;;
239;SDS011;104;53.590;10.004;2022-11-25T08:34:36;31.50;;;16.90;;
239;SDS011;104;53.590;10.004;2022-11-25T08:37:03;28.30;;;14.13;;
239;SDS011;104;53.590;10.004;2022-11-25T08:39:31;25.57;;;14.63;;
239;SDS011;104;53.590;10.004;2022-11-25T08:41:58;23.93;;;14.50;;
239;SDS011;104;53.590;10.004;2022-11-25T08:44:37;33.93;;;15.17;;
239;SDS011;104;53.590;10.004;2022-11-25T08:47:05;31.23;;;16.20;;
239;SDS011;104;53.590;10.004;2022-11-25T08:49:48;25.73;;;15.90;;
239;SDS011;104;53.590;10.004;2022-11-25T08:52:16;26.40;;;14.50;;
239;SDS011;104;53.590;10.004;2022-11-25T08:54:57;32.23;;;15.60;;
239;SDS011;104;53.590;10.004;2022-11-25T08:57:25;30.10;;;16.10;;
239;SDS011;104;53.590;10.004;2022-11-25T08:59:58;26.50;;;14.60;;
239;SDS011;104;53.590;10.004;2022-11-25T09:02:25;28.03;;;16.23;;
239;SDS011;104;53.590;10.004;2022-11-25T09:04:53;31.23;;;15.80;;
239;SDS011;104;53.590;10.004;2022-11-25T09:07:20;27.60;;;14.80;;
239;SDS011;104;53.590;10.004;2022-11-25T09:09:47;31.57;;;16.27;;
239;SDS011;104;53.590;10.004;2022-11-25T09:12:15;24.43;;;14.70;;
239;SDS011;104;53.590;10.004;2022-11-25T09:14:42;53.53;;;15.13;;
239;SDS011;104;53.590;10.004;2022-11-25T09:17:11;33.33;;;17.40;;
239;SDS011;104;53.590;10.004;2022-11-25T09:19:39;26.30;;;16.20;;
239;SDS011;104;53.590;10.004;2022-11-25T09:22:08;28.17;;;16.37;;
239;SDS011;104;53.590;10.004;2022-11-25T09:24:35;30.03;;;15.87;;
239;SDS011;104;53.590;10.004;2022-11-25T09:27:02;39.57;;;17.60;;
239;SDS011;104;53.590;10.004;2022-11-25T09:29:30;28.90;;;16.27;;
239;SDS011;104;53.590;10.004;2022-11-25T09:31:57;30.80;;;16.47;;
239;SDS011;104;53.590;10.004;2022-11-25T09:34:26;31.50;;;16.73;;
239;SDS011;104;53.590;10.004;2022-11-25T09:36:54;32.73;;;16.60;;
239;SDS011;104;53.590;10.004;2022-11-25T09:39:23;36.67;;;17.60;;
239;SDS011;104;53.590;10.004;2022-11-25T09:42:01;30.57;;;17.17;;
239;SDS011;104;53.590;10.004;2022-11-25T09:44:57;32.27;;;17.43;;
239;SDS011;104;53.590;10.004;2022-11-25T09:47:50;30.73;;;17.10;;
239;SDS011;104;53.590;10.004;2022-11-25T09:50:33;30.90;;;17.80;;
239;SDS011;104;53.590;10.004;2022-11-25T09:53:10;36.47;;;19.67;;
239;SDS011;104;53.590;10.004;2022-11-25T09:55:44;32.50;;;16.63;;
239;SDS011;104;53.590;10.004;2022-11-25T09:58:17;29.10;;;15.80;;
239;SDS011;104;53.590;10.004;2022-11-25T10:00:51;30.63;;;17.10;;
239;SDS011;104;53.590;10.004;2022-11-25T10:03:22;32.30;;;17.43;;
239;SDS011;104;53.590;10.004;2022-11-25T10:06:02;42.77;;;20.50;;
239;SDS011;104;53.590;10.004;2022-11-25T10:08:34;42.67;;;23.80;;
239;SDS011;104;53.590;10.004;2022-11-25T10:11:10;37.43;;;17.67;;
239;SDS011;104;53.590;10.004;2022-11-25T10:13:40;31.53;;;17.53;;
239;SDS011;104;53.590;10.004;2022-11-25T10:16:14;35.83;;;18.40;;
239;SDS011;104;53.590;10.004;2022-11-25T10:18:46;31.87;;;18.30;;
239;SDS011;104;53.590;10.004;2022-11-25T10:21:19;40.20;;;17.63;;
239;SDS011;104;53.590;10.004;2022-11-25T10:23:46;29.40;;;16.80;;
239;SDS011;104;53.590;10.004;2022-11-25T10:26:14;33.33;;;17.90;;
239;SDS011;104;53.590;10.004;2022-11-25T10:28:43;37.80;;;17.47;;
239;SDS011;104;53.590;10.004;2022-11-25T10:31:18;31.30;;;17.57;;
239;SDS011;104;53.590;10.004;2022-11-25T10:33:49;28.77;;;16.60;;
239;SDS011;104;53.590;10.004;2022-11-25T10:36:20;27.60;;;16.17;;
239;SDS011;104;53.590;10.004;2022-11-25T10:38:53;29.67;;;15.60;;
239;SDS011;104;53.590;10.004;2022-11-25T10:41:25;28.50;;;16.17;;
239;SDS011;104;53.590;10.004;2022-11-25T10:43:56;25.70;;;15.47;;
239;SDS011;104;53.590;10.004;2022-11-25T10:46:25;28.33;;;16.10;;
239;SDS011;104;53.590;10.004;2022-11-25T10:49:04;26.30;;;15.53;;
239;SDS011;104;53.590;10.004;2022-11-25T10:51:41;26.87;;;16.17;;
239;SDS011;104;53.590;10.004;2022-11-25T10:54:12;30.90;;;16.13;;
239;SDS011;104;53.590;10.004;2022-11-25T10:56:42;26.97;;;16.60;;
239;SDS011;104;53.590;10.004;2022-11-25T10:59:13;33.20;;;18.07;;
239;SDS011;104;53.590;10.004;2022-11-25T11:01:48;30.60;;;16.90;;
239;SDS011;104;53.590;10.004;2022-11-25T11:04:17;26.27;;;15.87;;
239;SDS011;104;53.590;10.004;2022-11-25T11:06:48;30.87;;;17.50;;
239;SDS011;104;53.590;10.004;2022-11-25T11:09:32;25.90;;;15.80;;
239;SDS011;104;53.590;10.004;2022-11-25T11:14:45;26.87;;;16.17;;
239;SDS011;104;53.590;10.004;2022-11-25T11:17:32;31.57;;;16.27;;
239;SDS011;104;53.590;10.004;2022-11-25T11:20:00;27.63;;;16.13;;
239;SDS011;104;53.590;10.004;2022-11-25T11:22:46;27.90;;;16.63;;
239;SDS011;104;53.590;10.004;2022-11-25T11:25:25;27.33;;;14.90;;
239;SDS011;104;53.590;10.004;2022-11-25T11:27:55;28.97;;;16.37;;
239;SDS011;104;53.590;10.004;2022-11-25T11:30:27;29.93;;;16.93;;
239;SDS011;104;53.590;10.004;2022-11-25T11:32:59;24.63;;;14.70;;
239;SDS011;104;53.590;10.004;2022-11-25T11:35:30;32.50;;;16.23;;
239;SDS011;104;53.590;10.004;2022-11-25T11:38:14;21.93;;;13.43;;
239;SDS011;104;53.590;10.004;2022-11-25T11:40:52;24.30;;;12.37;;
239;SDS011;104;53.590;10.004;2022-11-25T11:43:26;20.17;;;11.90;;
239;SDS011;104;53.590;10.004;2022-11-25T11:46:22;21.03;;;12.30;;
239;SDS011;104;53.590;10.004;2022-11-25T11:49:01;18.07;;;11.60;;
239;SDS011;104;53.590;10.004;2022-11-25T11:51:35;24.77;;;13.20;;
239;SDS011;104;53.590;10.004;2022-11-25T11:54:06;21.90;;;12.70;;
239;SDS011;104;53.590;10.004;2022-11-25T11:56:36;22.40;;;12.80;;
239;SDS011;104;53.590;10.004;2022-11-25T11:59:08;26.30;;;11.93;;
239;SDS011;104;53.590;10.004;2022-11-25T12:02:00;19.47;;;12.20;;
239;SDS011;104;53.590;10.004;2022-11-25T12:04:39;25.17;;;13.00;;
239;SDS011;104;53.590;10.004;2022-11-25T12:07:10;24.97;;;12.77;;
239;SDS011;104;53.590;10.004;2022-11-25T12:09:46;19.03;;;12.30;;
239;SDS011;104;53.590;10.004;2022-11-25T12:12:19;21.50;;;13.03;;
239;SDS011;104;53.590;10.004;2022-11-25T12:14:52;20.97;;;12.63;;
239;SDS011;104;53.590;10.004;2022-11-25T12:17:29;22.17;;;13.13;;
239;SDS011;104;53.590;10.004;2022-11-25T12:20:13;30.50;;;13.20;;
239;SDS011;104;53.590;10.004;2022-11-25T12:22:46;23.40;;;13.63;;
239;SDS011;104;53.590;10.004;2022-11-25T12:25:18;22.60;;;12.37;;
239;SDS011;104;53.590;10.004;2022-11-25T12:27:49;39.73;;;18.20;;
239;SDS011;104;53.590;10.004;2022-11-25T12:30:21;23.30;;;14.47;;
239;SDS011;104;53.590;10.004;2022-11-25T12:32:55;22.63;;;13.30;;
239;SDS011;104;53.590;10.004;2022-11-25T12:35:29;48.40;;;16.40;;
239;SDS011;104;53.590;10.004;2022-11-25T12:38:09;26.57;;;13.20;;
239;SDS011;104;53.590;10.004;2022-11-25T12:40:52;22.03;;;14.10;;
239;SDS011;104;53.590;10.004;2022-11-25T12:43:24;21.60;;;13.87;;
239;SDS011;104;53.590;10.004;2022-11-25T12:45:56;22.17;;;12.80;;
239;SDS011;104;53.590;10.004;2022-11-25T12:48:30;23.43;;;13.13;;
239;SDS011;104;53.590;10.004;2022-11-25T12:50:59;23.30;;;12.70;;
239;SDS011;104;53.590;10.004;2022-11-25T12:53:35;20.00;;;12.70;;
239;SDS011;104;53.590;10.004;2022-11-25T12:56:12;24.70;;;12.73;;
239;SDS011;104;53.590;10.004;2022-11-25T12:58:52;19.00;;;11.50;;
239;SDS011;104;53.590;10.004;2022-11-25T13:01:44;24.40;;;12.83;;
239;SDS011;104;53.590;10.004;2022-11-25T13:07:20;18.00;;;12.27;;
239;SDS011;104;53.590;10.004;2022-11-25T13:09:56;23.00;;;13.10;;
239;SDS011;104;53.590;10.004;2022-11-25T13:12:46;21.50;;;12.90;;
239;SDS011;104;53.590;10.004;2022-11-25T13:15:23;22.20;;;12.90;;
239;SDS011;104;53.590;10.004;2022-11-25T13:17:54;21.90;;;12.67;;
239;SDS011;104;53.590;10.004;2022-11-25T13:20:31;18.73;;;12.53;;
239;SDS011;104;53.590;10.004;2022-11-25T13:23:01;20.53;;;12.70;;
239;SDS011;104;53.590;10.004;2022-11-25T13:25:33;29.73;;;13.17;;
239;SDS011;104;53.590;10.004;2022-11-25T13:28:03;22.67;;;12.70;;
239;SDS011;104;53.590;10.004;2022-11-25T13:30:35;19.30;;;12.13;;
239;SDS011;104;53.590;10.004;2022-11-25T13:36:14;20.00;;;12.20;;
239;SDS011;104;53.590;10.004;2022-11-25T13:41:48;34.90;;;19.20;;
239;SDS011;104;53.590;10.004;2022-11-25T13:44:26;23.20;;;14.40;;
239;SDS011;104;53.590;10.004;2022-11-25T13:46:57;19.80;;;12.40;;
239;SDS011;104;53.590;10.004;2022-11-25T13:49:49;21.17;;;13.17;;
239;SDS011;104;53.590;10.004;2022-11-25T13:52:27;26.57;;;12.50;;
239;SDS011;104;53.590;10.004;2022-11-25T13:55:02;26.67;;;13.33;;
239;SDS011;104;53.590;10.004;2022-11-25T13:57:46;19.10;;;12.63;;
239;SDS011;104;53.590;10.004;2022-11-25T14:06:17;23.07;;;13.03;;
239;SDS011;104;53.590;10.004;2022-11-25T14:08:53;31.43;;;14.07;;
239;SDS011;104;53.590;10.004;2022-11-25T14:11:30;28.03;;;13.40;;
239;SDS011;104;53.590;10.004;2022-11-25T14:14:32;21.50;;;13.40;;
239;SDS011;104;53.590;10.004;2022-11-25T14:17:20;23.50;;;12.47;;
239;SDS011;104;53.590;10.004;2022-11-25T14:20:14;21.60;;;12.80;;
239;SDS011;104;53.590;10.004;2022-11-25T14:23:01;24.30;;;13.10;;
239;SDS011;104;53.590;10.004;2022-11-25T14:25:44;21.97;;;13.10;;
239;SDS011;104;53.590;10.004;2022-11-25T14:28:19;21.73;;;13.00;;
239;SDS011;104;53.590;10.004;2022-11-25T14:30:53;22.27;;;13.10;;
239;SDS011;104;53.590;10.004;2022-11-25T14:33:35;24.60;;;13.47;;
239;SDS011;104;53.590;10.004;2022-11-25T14:36:06;25.93;;;12.70;;
239;SDS011;104;53.590;10.004;2022-11-25T14:38:39;20.17;;;13.13;;
239;SDS011;104;53.590;10.004;2022-11-25T14:41:12;21.60;;;13.60;;
239;SDS011;104;53.590;10.004;2022-11-25T14:43:46;22.47;;;13.20;;
239;SDS011;104;53.590;10.004;2022-11-25T14:46:18;35.10;;;20.37;;
239;SDS011;104;53.590;10.004;2022-11-25T14:48:53;38.80;;;20.63;;
239;SDS011;104;53.590;10.004;2022-11-25T14:51:21;23.20;;;14.53;;
239;SDS011;104;53.590;10.004;2022-11-25T14:53:50;22.27;;;13.40;;
239;SDS011;104;53.590;10.004;2022-11-25T14:56:20;20.07;;;12.83;;
239;SDS011;104;53.590;10.004;2022-11-25T14:58:51;25.13;;;12.40;;
239;SDS011;104;53.590;10.004;2022-11-25T15:01:20;22.80;;;13.33;;
239;SDS011;104;53.590;10.004;2022-11-25T15:03:50;20.00;;;12.67;;
239;SDS011;104;53.590;10.004;2022-11-25T15:06:31;20.10;;;13.10;;
239;SDS011;104;53.590;10.004;2022-11-25T15:08:59;25.23;;;13.57;;
239;SDS011;104;53.590;10.004;2022-11-25T15:11:28;24.20;;;14.30;;
239;SDS011;104;53.590;10.004;2022-11-25T15:13:58;23.47;;;14.13;;
239;SDS011;104;53.590;10.004;2022-11-25T15:16:30;24.93;;;14.20;;
239;SDS011;104;53.590;10.004;2022-11-25T15:19:13;32.57;;;13.80;;
239;SDS011;104;53.590;10.004;2022-11-25T15:21:45;25.53;;;15.03;;
239;SDS011;104;53.590;10.004;2022-11-25T15:24:20;57.00;;;25.90;;
239;SDS011;104;53.590;10.004;2022-11-25T15:26:49;31.30;;;15.53;;
239;SDS011;104;53.590;10.004;2022-11-25T15:29:28;47.23;;;24.50;;
239;SDS011;104;53.590;10.004;2022-11-25T15:31:56;37.60;;;15.87;;
239;SDS011;104;53.590;10.004;2022-11-25T15:34:25;26.53;;;14.13;;
239;SDS011;104;53.590;10.004;2022-11-25T15:36:59;24.83;;;14.77;;
239;SDS011;104;53.590;10.004;2022-11-25T15:39:26;24.23;;;13.87;;